Time;durP1;ratioP1;P1;durP2;ratioP2;P2;SDS_P1;SDS_P2;PMS_P1;PMS_P2;Temp;Humidity;BMP_temperature;BMP_pressure;BME280_temperature;BME280_humidity;BME280_pressure;Samples;Min_cycle;Max_cycle;Signal;HPM_P1;HPM_P2
2021/11/15 00:00:45;;;;;;;13.05;7.53;;;11.60;99.90;;;;;;5062235;28;20059;-81
2021/11/15 00:03:12;;;;;;;12.00;7.07;;;11.60;99.90;;;;;;5061985;28;20082;-81
2021/11/15 00:05:38;;;;;;;9.55;7.07;;;11.60;99.90;;;;;;5062354;28;20028;-81
2021/11/15 00:08:04;;;;;;;12.63;7.72;;;11.70;99.90;;;;;;5061757;28;20033;-81
2021/11/15 00:10:30;;;;;;;11.85;7.28;;;11.60;99.90;;;;;;5061858;28;20092;-81
2021/11/15 00:12:56;;;;;;;12.80;8.13;;;11.60;99.90;;;;;;5061574;28;20032;-81
2021/11/15 00:15:22;;;;;;;13.25;8.20;;;11.50;99.90;;;;;;5061887;28;20033;-81
2021/11/15 00:17:48;;;;;;;10.27;7.40;;;11.60;99.90;;;;;;5061923;28;20025;-81
2021/11/15 00:20:16;;;;;;;10.57;7.18;;;11.60;99.90;;;;;;5061754;28;20107;-81
2021/11/15 00:22:42;;;;;;;11.25;7.57;;;11.60;99.90;;;;;;5061979;28;20047;-81
2021/11/15 00:25:09;;;;;;;12.57;7.68;;;11.60;99.90;;;;;;5060887;28;20301;-81
2021/11/15 00:27:35;;;;;;;11.43;6.85;;;11.60;99.90;;;;;;5061866;28;20032;-81
2021/11/15 00:30:01;;;;;;;8.93;7.25;;;11.60;99.90;;;;;;5061643;28;20021;-81
2021/11/15 00:32:28;;;;;;;10.75;7.57;;;11.70;99.90;;;;;;5061569;28;20043;-81
2021/11/15 00:34:53;;;;;;;9.65;6.88;;;11.60;99.90;;;;;;5061855;28;20337;-81
2021/11/15 00:37:20;;;;;;;9.70;7.47;;;11.60;99.90;;;;;;5061145;28;20027;-81
2021/11/15 00:39:46;;;;;;;11.70;8.00;;;11.50;99.90;;;;;;5061728;28;20016;-81
2021/11/15 00:42:12;;;;;;;12.35;8.32;;;11.50;99.90;;;;;;5061359;28;20324;-81
2021/11/15 00:44:38;;;;;;;12.23;7.72;;;11.50;99.90;;;;;;5061171;28;20047;-81
2021/11/15 00:47:03;;;;;;;10.02;7.60;;;11.50;99.90;;;;;;5061063;28;20037;-81
2021/11/15 00:49:29;;;;;;;12.05;8.80;;;11.40;99.90;;;;;;5061487;28;20020;-81
2021/11/15 00:51:55;;;;;;;12.95;8.30;;;11.20;99.90;;;;;;5061262;28;20260;-81
2021/11/15 00:54:21;;;;;;;12.68;8.70;;;11.30;99.90;;;;;;5061266;28;20485;-81
2021/11/15 00:56:46;;;;;;;12.30;9.20;;;11.20;99.90;;;;;;5061007;28;20036;-81
2021/11/15 00:59:12;;;;;;;10.43;7.68;;;11.20;99.90;;;;;;5061378;28;20047;-81
2021/11/15 01:01:38;;;;;;;13.75;9.07;;;11.20;99.90;;;;;;5060784;28;20029;-81
2021/11/15 01:04:04;;;;;;;15.00;9.63;;;11.10;99.90;;;;;;5043085;28;20214;-81
2021/11/15 01:06:30;;;;;;;12.15;8.75;;;11.00;99.90;;;;;;5060490;28;20035;-81
2021/11/15 01:08:55;;;;;;;12.65;9.20;;;11.00;99.90;;;;;;5060790;28;20100;-81
2021/11/15 01:11:21;;;;;;;11.48;8.77;;;11.00;99.90;;;;;;5060435;28;20029;-81
2021/11/15 01:13:47;;;;;;;10.98;9.20;;;11.00;99.90;;;;;;5060363;28;20029;-82
2021/11/15 01:16:14;;;;;;;15.45;9.68;;;11.00;99.90;;;;;;5060648;28;20032;-81
2021/11/15 01:18:43;;;;;;;13.05;9.15;;;10.90;99.90;;;;;;5060741;28;20028;-84
2021/11/15 01:21:10;;;;;;;14.98;9.35;;;10.90;99.90;;;;;;5060144;28;20025;-81
2021/11/15 01:23:36;;;;;;;16.88;9.98;;;10.80;99.90;;;;;;5060582;28;20024;-81
2021/11/15 01:26:04;;;;;;;13.63;10.38;;;10.70;99.90;;;;;;5060492;28;20246;-81
2021/11/15 01:28:30;;;;;;;14.25;10.55;;;10.70;99.90;;;;;;5060577;28;20029;-81
2021/11/15 01:30:56;;;;;;;15.48;10.98;;;10.70;99.90;;;;;;5060300;28;20021;-81
2021/11/15 01:33:21;;;;;;;13.90;10.07;;;10.70;99.90;;;;;;5061045;28;20078;-81
2021/11/15 01:35:47;;;;;;;15.23;10.50;;;10.60;99.90;;;;;;5062476;28;20221;-81
2021/11/15 01:38:13;;;;;;;17.95;12.35;;;10.60;99.90;;;;;;5063116;28;20017;-81
2021/11/15 01:40:38;;;;;;;16.15;11.95;;;10.50;99.90;;;;;;5064244;28;20044;-81
2021/11/15 01:43:05;;;;;;;16.63;11.80;;;10.40;99.90;;;;;;5062697;28;20327;-81
2021/11/15 01:45:35;;;;;;;15.32;11.68;;;10.40;99.90;;;;;;5063955;28;20052;-81
2021/11/15 01:48:02;;;;;;;14.65;11.05;;;10.40;99.90;;;;;;5063302;28;20151;-81
2021/11/15 01:50:30;;;;;;;15.38;10.82;;;10.30;99.90;;;;;;5064600;28;20074;-81
2021/11/15 01:52:56;;;;;;;17.42;10.70;;;10.30;99.90;;;;;;5063781;28;20469;-81
2021/11/15 01:55:24;;;;;;;14.73;10.88;;;10.30;99.90;;;;;;5064397;28;20324;-81
2021/11/15 01:57:51;;;;;;;16.38;11.43;;;10.30;99.90;;;;;;5064349;28;20086;-81
2021/11/15 02:00:27;;;;;;;16.15;12.40;;;10.30;99.90;;;;;;5064296;28;20300;-81
2021/11/15 02:02:53;;;;;;;16.40;11.07;;;10.30;99.90;;;;;;5063685;28;20032;-81
2021/11/15 02:05:19;;;;;;;15.88;11.82;;;10.30;99.90;;;;;;5064142;28;20020;-83
2021/11/15 02:07:46;;;;;;;14.70;10.70;;;10.20;99.90;;;;;;5064718;28;20056;-83
2021/11/15 02:10:12;;;;;;;15.68;11.65;;;10.20;99.90;;;;;;5046230;28;20033;-83
2021/11/15 02:12:39;;;;;;;17.73;12.45;;;10.10;99.90;;;;;;5063836;28;20067;-83
2021/11/15 02:15:08;;;;;;;19.67;13.00;;;10.10;99.90;;;;;;5063690;28;20309;-83
2021/11/15 02:17:33;;;;;;;21.05;13.30;;;10.10;99.90;;;;;;5063240;28;20013;-83
2021/11/15 02:20:06;;;;;;;19.52;13.43;;;10.10;99.90;;;;;;5061758;28;20024;-83
2021/11/15 02:22:31;;;;;;;22.27;14.48;;;10.00;99.90;;;;;;5063510;28;20032;-83
2021/11/15 02:25:00;;;;;;;19.27;13.25;;;10.00;99.90;;;;;;5063514;28;20017;-83
2021/11/15 02:27:26;;;;;;;25.23;14.18;;;10.00;99.90;;;;;;5062823;28;20065;-83
2021/11/15 02:29:52;;;;;;;21.52;13.52;;;10.00;99.90;;;;;;5063223;28;20268;-83
2021/11/15 02:32:18;;;;;;;20.23;13.85;;;10.00;99.90;;;;;;5063030;28;20029;-83
2021/11/15 02:34:43;;;;;;;19.75;14.80;;;9.90;99.90;;;;;;5063767;28;20076;-83
2021/11/15 02:37:09;;;;;;;20.95;14.20;;;10.00;99.90;;;;;;5059357;28;20083;-83
2021/11/15 02:39:35;;;;;;;22.85;15.38;;;9.90;99.90;;;;;;5052277;28;20024;-83
2021/11/15 02:42:01;;;;;;;23.65;14.60;;;10.00;99.90;;;;;;5052419;28;20432;-83
2021/11/15 02:44:27;;;;;;;18.67;14.30;;;10.00;99.90;;;;;;5052080;28;20033;-83
2021/11/15 02:46:53;;;;;;;18.48;14.10;;;10.00;99.90;;;;;;5049614;28;20383;-81
2021/11/15 02:49:19;;;;;;;24.60;14.85;;;10.00;99.90;;;;;;5052245;28;20029;-81
2021/11/15 02:51:45;;;;;;;22.27;15.00;;;9.90;99.90;;;;;;5052146;28;20021;-81
2021/11/15 02:54:11;;;;;;;21.45;14.90;;;9.90;99.90;;;;;;5051998;28;20398;-81
2021/11/15 02:56:40;;;;;;;19.35;14.90;;;9.90;99.90;;;;;;5052041;28;20033;-81
2021/11/15 02:59:06;;;;;;;20.50;14.57;;;9.90;99.90;;;;;;5051870;28;20551;-81
2021/11/15 03:01:32;;;;;;;22.17;15.95;;;9.90;99.90;;;;;;5051645;28;20029;-81
2021/11/15 03:03:57;;;;;;;23.83;15.50;;;9.90;99.90;;;;;;5052148;28;20017;-81
2021/11/15 03:06:23;;;;;;;21.10;15.13;;;9.90;99.90;;;;;;5050356;28;20025;-81
2021/11/15 03:08:50;;;;;;;21.92;15.45;;;9.90;99.90;;;;;;5051794;28;20029;-81
2021/11/15 03:11:15;;;;;;;23.73;15.90;;;9.80;99.90;;;;;;5052116;28;20021;-81
2021/11/15 03:13:45;;;;;;;19.30;15.35;;;9.80;99.90;;;;;;5051699;28;20047;-81
2021/11/15 03:16:12;;;;;;;20.02;15.02;;;9.90;99.90;;;;;;5051690;28;20065;-81
2021/11/15 03:18:40;;;;;;;24.25;16.27;;;9.90;99.90;;;;;;5050255;28;20029;-81
2021/11/15 03:21:18;;;;;;;27.75;17.25;;;9.80;99.90;;;;;;5052149;28;20028;-81
2021/11/15 03:23:47;;;;;;;25.30;16.88;;;9.70;99.90;;;;;;5051404;28;20059;-81
2021/11/15 03:26:13;;;;;;;29.38;16.88;;;9.70;99.90;;;;;;5051491;28;20478;-81
2021/11/15 03:28:44;;;;;;;28.35;17.08;;;9.70;99.90;;;;;;5051518;28;20068;-81
2021/11/15 03:31:14;;;;;;;26.40;17.83;;;9.70;99.90;;;;;;5051478;28;20033;-81
2021/11/15 03:33:41;;;;;;;28.65;17.75;;;9.70;99.90;;;;;;5051615;28;20028;-81
2021/11/15 03:36:07;;;;;;;25.23;17.08;;;9.70;99.90;;;;;;5066728;28;20029;-81
2021/11/15 03:38:34;;;;;;;28.38;18.20;;;9.70;99.90;;;;;;5051351;28;20029;-81
2021/11/15 03:41:00;;;;;;;26.25;18.23;;;9.70;99.90;;;;;;5051419;28;20021;-81
2021/11/15 03:43:26;;;;;;;29.08;18.52;;;9.70;99.90;;;;;;5051286;28;20025;-83
2021/11/15 03:45:52;;;;;;;30.40;18.73;;;9.70;99.90;;;;;;5050817;28;20064;-83
2021/11/15 03:48:20;;;;;;;29.95;19.42;;;9.70;99.90;;;;;;5050977;28;20053;-83
2021/11/15 03:50:46;;;;;;;27.15;18.20;;;9.60;99.90;;;;;;5051123;28;20024;-83
2021/11/15 03:53:14;;;;;;;27.00;18.38;;;9.60;99.90;;;;;;5051288;28;20104;-84
2021/11/15 03:55:41;;;;;;;26.23;18.17;;;9.50;99.90;;;;;;5051117;28;20064;-84
2021/11/15 03:58:08;;;;;;;25.60;17.20;;;9.50;99.90;;;;;;5032759;28;20485;-83
2021/11/15 04:00:41;;;;;;;25.70;18.77;;;9.50;99.90;;;;;;5050808;28;20413;-83
2021/11/15 04:03:15;;;;;;;25.58;17.42;;;9.50;99.90;;;;;;5050813;28;20058;-83
2021/11/15 04:05:45;;;;;;;29.83;18.05;;;9.40;99.90;;;;;;5050946;28;20029;-83
2021/11/15 04:08:10;;;;;;;28.80;18.30;;;9.30;99.90;;;;;;5050510;28;20033;-83
2021/11/15 04:10:41;;;;;;;27.58;17.20;;;9.40;99.90;;;;;;5032802;28;20481;-83
2021/11/15 04:13:32;;;;;;;26.65;18.00;;;9.30;99.90;;;;;;5050812;28;20285;-83
2021/11/15 04:16:01;;;;;;;28.08;17.55;;;9.30;99.90;;;;;;5050532;28;20032;-82
2021/11/15 04:18:30;;;;;;;30.45;17.58;;;9.20;99.90;;;;;;5050655;28;20269;-83
2021/11/15 04:20:58;;;;;;;28.27;17.58;;;9.20;99.90;;;;;;5050450;28;20116;-83
2021/11/15 04:23:24;;;;;;;25.30;16.90;;;9.20;99.90;;;;;;5050561;28;20037;-83
2021/11/15 04:25:49;;;;;;;29.10;18.77;;;9.10;99.90;;;;;;5050495;28;20032;-83
2021/11/15 04:28:15;;;;;;;23.17;16.23;;;9.10;99.90;;;;;;5050261;28;20045;-83
2021/11/15 04:30:41;;;;;;;28.60;18.15;;;9.10;99.90;;;;;;5050335;28;20049;-83
2021/11/15 04:33:08;;;;;;;27.33;17.90;;;9.10;99.90;;;;;;5050600;28;20029;-83
2021/11/15 04:35:35;;;;;;;31.15;18.13;;;9.10;99.90;;;;;;5050285;28;20036;-83
2021/11/15 04:38:02;;;;;;;30.70;18.75;;;9.10;99.90;;;;;;5050590;28;20448;-83
2021/11/15 04:40:28;;;;;;;28.20;18.05;;;9.10;99.90;;;;;;5050176;28;20048;-83
2021/11/15 04:42:53;;;;;;;28.52;18.17;;;9.00;99.90;;;;;;5050083;28;20658;-83
2021/11/15 04:45:19;;;;;;;28.65;18.52;;;9.00;99.90;;;;;;5049819;28;20320;-83
2021/11/15 04:47:47;;;;;;;29.13;18.65;;;8.90;99.90;;;;;;5032090;28;20029;-83
2021/11/15 04:50:14;;;;;;;28.80;18.85;;;9.00;99.90;;;;;;5050205;28;20039;-83
2021/11/15 04:52:40;;;;;;;31.95;19.75;;;8.90;99.90;;;;;;5050026;28;20025;-81
2021/11/15 04:55:09;;;;;;;27.88;18.30;;;8.90;99.90;;;;;;5050138;28;20485;-81
2021/11/15 04:57:36;;;;;;;27.33;18.02;;;8.90;99.90;;;;;;5049834;28;20043;-81
2021/11/15 05:00:06;;;;;;;28.20;17.73;;;9.00;99.90;;;;;;5049863;28;20413;-81
2021/11/15 05:02:32;;;;;;;26.95;17.23;;;8.90;99.90;;;;;;5049528;28;20018;-81
2021/11/15 05:04:57;;;;;;;27.58;18.33;;;8.90;99.90;;;;;;5049906;28;20538;-81
2021/11/15 05:07:23;;;;;;;34.10;20.15;;;8.90;99.90;;;;;;5049832;28;20517;-81
2021/11/15 05:09:49;;;;;;;31.48;18.40;;;8.90;99.90;;;;;;5049308;28;20145;-81
2021/11/15 05:12:17;;;;;;;27.90;17.95;;;9.00;99.90;;;;;;5049857;28;20082;-81
2021/11/15 05:14:42;;;;;;;29.88;19.42;;;8.90;99.90;;;;;;5049759;28;20099;-81
2021/11/15 05:17:09;;;;;;;28.10;19.30;;;8.90;99.90;;;;;;5049440;28;20509;-81
2021/11/15 05:19:35;;;;;;;28.60;18.80;;;8.90;99.90;;;;;;5049787;28;20027;-81
2021/11/15 05:22:01;;;;;;;34.60;19.65;;;8.90;99.90;;;;;;5049605;28;20091;-81
2021/11/15 05:24:26;;;;;;;29.40;19.42;;;8.90;99.90;;;;;;5049586;28;20025;-81
2021/11/15 05:26:52;;;;;;;29.25;19.33;;;8.90;99.90;;;;;;5049912;28;20468;-81
2021/11/15 05:29:18;;;;;;;29.25;19.33;;;8.90;99.90;;;;;;5049643;28;20096;-81
2021/11/15 05:31:44;;;;;;;34.05;20.85;;;8.90;99.90;;;;;;5049453;28;20029;-81
2021/11/15 05:34:10;;;;;;;32.08;19.80;;;8.80;99.90;;;;;;5049443;28;20420;-81
2021/11/15 05:36:35;;;;;;;35.22;21.33;;;8.70;99.90;;;;;;5049376;28;20017;-81
2021/11/15 05:39:03;;;;;;;34.45;20.27;;;8.60;99.90;;;;;;5049490;28;20021;-81
2021/11/15 05:41:29;;;;;;;34.30;21.45;;;8.60;99.90;;;;;;5049392;28;20017;-81
2021/11/15 05:43:54;;;;;;;43.47;21.65;;;8.50;99.90;;;;;;5049671;28;20490;-81
2021/11/15 05:46:20;;;;;;;39.65;21.27;;;8.60;99.90;;;;;;5049072;28;20073;-81
2021/11/15 05:48:46;;;;;;;34.55;21.95;;;8.50;99.90;;;;;;5049483;28;20033;-81
2021/11/15 05:51:12;;;;;;;32.60;21.20;;;8.50;99.90;;;;;;5048237;28;20065;-81
2021/11/15 05:53:38;;;;;;;35.78;21.45;;;8.50;99.90;;;;;;5049153;28;20032;-81
2021/11/15 05:56:07;;;;;;;38.13;21.95;;;8.50;99.90;;;;;;5049460;28;20150;-81
2021/11/15 05:58:33;;;;;;;33.42;19.92;;;8.60;99.90;;;;;;5049329;28;20509;-81
2021/11/15 06:00:59;;;;;;;34.65;21.67;;;8.60;99.90;;;;;;5049186;28;20500;-81
2021/11/15 06:03:26;;;;;;;35.53;22.20;;;8.50;99.90;;;;;;5049404;28;20021;-81
2021/11/15 06:05:51;;;;;;;39.10;21.80;;;8.50;99.90;;;;;;5049192;28;20025;-81
2021/11/15 06:08:17;;;;;;;42.92;22.48;;;8.50;99.90;;;;;;5049371;28;20148;-81
2021/11/15 06:10:43;;;;;;;40.33;23.17;;;8.50;99.90;;;;;;5049244;28;20103;-81
2021/11/15 06:13:10;;;;;;;38.30;22.73;;;8.40;99.90;;;;;;5049500;28;20029;-81
2021/11/15 06:15:36;;;;;;;34.90;20.90;;;8.40;99.90;;;;;;5049050;28;20504;-81
2021/11/15 06:18:01;;;;;;;39.53;23.75;;;8.40;99.90;;;;;;5049663;28;20029;-81
2021/11/15 06:20:27;;;;;;;39.47;22.35;;;8.40;99.90;;;;;;5049311;28;20481;-81
2021/11/15 06:22:53;;;;;;;40.45;23.33;;;8.40;99.90;;;;;;5051146;28;20075;-81
2021/11/15 06:25:18;;;;;;;39.25;23.05;;;8.50;99.90;;;;;;5052835;28;20492;-81
2021/11/15 06:27:45;;;;;;;40.75;23.70;;;8.50;99.90;;;;;;5052786;28;20031;-81
2021/11/15 06:30:15;;;;;;;39.15;22.75;;;8.50;99.90;;;;;;5052623;28;20382;-81
2021/11/15 06:32:42;;;;;;;45.60;24.45;;;8.50;99.90;;;;;;5052526;28;20049;-81
2021/11/15 06:35:10;;;;;;;44.13;25.17;;;8.40;99.90;;;;;;5052584;28;20023;-83
2021/11/15 06:37:37;;;;;;;49.47;26.67;;;8.50;99.90;;;;;;5052499;28;20033;-81
2021/11/15 06:40:07;;;;;;;40.65;23.90;;;8.50;99.90;;;;;;5052581;28;20489;-81
2021/11/15 06:42:36;;;;;;;43.22;26.05;;;8.60;99.90;;;;;;5051151;28;20045;-81
2021/11/15 06:45:04;;;;;;;44.58;25.23;;;8.80;99.90;;;;;;5052462;28;20084;-81
2021/11/15 06:47:33;;;;;;;43.10;25.40;;;8.80;99.90;;;;;;5051884;28;20025;-87
2021/11/15 06:50:00;;;;;;;45.97;27.25;;;8.80;99.90;;;;;;5056553;28;20018;-84
2021/11/15 06:52:26;;;;;;;42.38;25.88;;;8.80;99.90;;;;;;5038781;28;20161;-85
2021/11/15 06:54:52;;;;;;;41.00;25.90;;;8.90;99.90;;;;;;5052551;28;20104;-86
2021/11/15 06:57:17;;;;;;;45.35;24.77;;;8.90;99.90;;;;;;5034504;28;20190;-88
2021/11/15 06:59:43;;;;;;;44.58;26.25;;;8.90;99.90;;;;;;5034423;28;20175;-87
2021/11/15 07:02:09;;;;;;;38.72;24.80;;;9.00;99.90;;;;;;5051267;28;20384;-86
2021/11/15 07:04:35;;;;;;;41.03;25.67;;;9.00;99.90;;;;;;5052249;28;20059;-85
2021/11/15 07:07:01;;;;;;;41.00;23.60;;;9.10;99.90;;;;;;5051282;28;20020;-85
2021/11/15 07:09:26;;;;;;;44.33;25.52;;;9.00;99.90;;;;;;5039780;28;20051;-86
2021/11/15 07:11:54;;;;;;;41.25;25.35;;;9.00;99.90;;;;;;5063753;28;20029;-85
2021/11/15 07:14:20;;;;;;;40.50;24.98;;;9.10;99.90;;;;;;5063251;28;20025;-85
2021/11/15 07:16:46;;;;;;;39.70;24.30;;;9.10;99.90;;;;;;5061588;28;20025;-85
2021/11/15 07:19:12;;;;;;;40.35;23.88;;;9.10;99.90;;;;;;5056233;28;20021;-85
2021/11/15 07:21:38;;;;;;;43.60;24.20;;;9.10;99.90;;;;;;5051957;28;20040;-85
2021/11/15 07:24:04;;;;;;;43.35;25.13;;;9.20;99.90;;;;;;5052359;28;20025;-86
2021/11/15 07:26:30;;;;;;;40.13;24.58;;;9.30;99.90;;;;;;5052189;28;20025;-85
2021/11/15 07:28:55;;;;;;;40.38;24.83;;;9.30;99.90;;;;;;5053970;28;20029;-88
2021/11/15 07:31:23;;;;;;;44.38;24.33;;;9.20;99.90;;;;;;5033855;28;20032;-86
2021/11/15 07:33:49;;;;;;;42.13;25.83;;;9.30;99.90;;;;;;5061871;28;20037;-86
2021/11/15 07:36:15;;;;;;;40.42;25.50;;;9.30;99.90;;;;;;5064141;28;20041;-86
2021/11/15 07:38:44;;;;;;;43.03;26.02;;;9.40;99.90;;;;;;5065177;28;20102;-86
2021/11/15 07:41:09;;;;;;;42.35;25.38;;;9.30;99.90;;;;;;5046821;28;20044;-86
2021/11/15 07:43:35;;;;;;;41.22;24.63;;;9.30;99.90;;;;;;5062395;28;20029;-88
2021/11/15 07:46:01;;;;;;;38.17;23.33;;;9.40;99.90;;;;;;5062880;28;20052;-86
2021/11/15 07:48:28;;;;;;;44.20;25.27;;;9.50;99.90;;;;;;5060678;28;20033;-86
2021/11/15 07:50:55;;;;;;;40.83;24.73;;;9.60;99.90;;;;;;5066174;28;20019;-86
2021/11/15 07:53:21;;;;;;;38.95;24.10;;;9.60;99.90;;;;;;5068009;28;20024;-85
2021/11/15 07:55:46;;;;;;;38.55;24.05;;;9.60;99.90;;;;;;5071261;28;20021;-86
2021/11/15 07:58:15;;;;;;;40.70;24.85;;;9.60;99.90;;;;;;5063803;28;20374;-86
2021/11/15 08:00:41;;;;;;;41.80;25.00;;;9.70;99.90;;;;;;5054215;28;20013;-85
2021/11/15 08:03:07;;;;;;;40.03;24.60;;;9.70;99.90;;;;;;5071198;28;20045;-88
2021/11/15 08:05:33;;;;;;;44.92;25.48;;;9.70;99.90;;;;;;5072251;28;20021;-87
2021/11/15 08:07:59;;;;;;;46.47;27.05;;;9.70;99.90;;;;;;5063932;28;20099;-86
2021/11/15 08:10:25;;;;;;;52.13;30.70;;;9.70;99.90;;;;;;5052066;28;20136;-86
2021/11/15 08:12:53;;;;;;;45.22;26.00;;;9.70;99.90;;;;;;5052481;28;20108;-86
2021/11/15 08:15:20;;;;;;;40.63;24.95;;;9.70;99.90;;;;;;5067673;28;20377;-87
2021/11/15 08:17:51;;;;;;;45.58;26.52;;;9.70;99.90;;;;;;5050234;28;20119;-86
2021/11/15 08:20:20;;;;;;;40.72;25.08;;;9.70;99.90;;;;;;5033794;28;20032;-86
2021/11/15 08:22:48;;;;;;;42.05;25.77;;;9.70;99.90;;;;;;5051438;28;20032;-87
2021/11/15 08:25:26;;;;;;;46.30;26.10;;;9.70;99.90;;;;;;5050065;28;20029;-86
2021/11/15 08:27:57;;;;;;;41.58;24.83;;;9.90;99.90;;;;;;5050294;28;20048;-87
2021/11/15 08:30:24;;;;;;;44.53;24.35;;;9.90;99.90;;;;;;5033439;28;20481;-87
2021/11/15 08:32:50;;;;;;;45.20;26.40;;;9.90;99.90;;;;;;5051395;28;20024;-87
2021/11/15 08:35:19;;;;;;;46.53;26.73;;;10.00;99.90;;;;;;5051461;28;20028;-88
2021/11/15 08:38:16;;;;;;;43.78;25.08;;;10.00;99.90;;;;;;5051000;28;20024;-86
2021/11/15 08:40:47;;;;;;;39.90;24.65;;;10.00;99.90;;;;;;5051233;28;20199;-87
2021/11/15 08:43:17;;;;;;;43.28;25.60;;;10.00;99.90;;;;;;5051886;28;20379;-86
2021/11/15 08:45:43;;;;;;;47.17;25.65;;;10.00;99.90;;;;;;5051199;28;20080;-87
2021/11/15 08:48:09;;;;;;;45.58;25.17;;;10.00;99.90;;;;;;5051028;28;20079;-87
2021/11/15 08:50:35;;;;;;;45.17;24.42;;;10.10;99.90;;;;;;5033308;28;20051;-87
2021/11/15 08:53:02;;;;;;;43.33;24.60;;;10.20;99.90;;;;;;5051154;28;20470;-87
2021/11/15 08:55:28;;;;;;;41.40;24.48;;;10.40;99.90;;;;;;5032825;28;20383;-87
2021/11/15 08:57:55;;;;;;;42.38;24.38;;;10.40;99.90;;;;;;5050717;28;20158;-90
2021/11/15 09:00:21;;;;;;;41.95;24.40;;;10.50;99.90;;;;;;5050751;28;20036;-87
2021/11/15 09:02:47;;;;;;;39.78;24.60;;;10.60;99.90;;;;;;5049395;28;20035;-89
2021/11/15 09:05:13;;;;;;;41.88;24.50;;;10.70;99.90;;;;;;5050498;28;20017;-87
2021/11/15 09:07:40;;;;;;;42.30;24.40;;;10.80;99.90;;;;;;5050794;28;20037;-87
2021/11/15 09:10:08;;;;;;;44.72;24.73;;;10.70;99.90;;;;;;5051353;28;20570;-88
2021/11/15 09:12:35;;;;;;;37.55;22.92;;;10.70;99.90;;;;;;5050497;28;20021;-87
2021/11/15 09:15:06;;;;;;;38.40;23.50;;;10.70;99.90;;;;;;5050665;28;20051;-88
2021/11/15 09:17:31;;;;;;;33.97;22.17;;;10.70;99.90;;;;;;5048799;28;20397;-87
2021/11/15 09:19:57;;;;;;;38.33;23.73;;;10.80;99.90;;;;;;5049344;28;20025;-88
2021/11/15 09:22:23;;;;;;;36.92;21.65;;;10.90;99.90;;;;;;5050742;28;20051;-87
2021/11/15 09:24:50;;;;;;;37.60;23.13;;;10.90;99.90;;;;;;5050439;28;20021;-87
2021/11/15 09:27:18;;;;;;;39.40;22.75;;;11.00;99.90;;;;;;5050681;28;20558;-87
2021/11/15 09:29:47;;;;;;;36.15;22.50;;;11.10;99.90;;;;;;5050363;28;20023;-87
2021/11/15 09:32:14;;;;;;;36.58;22.45;;;11.00;99.90;;;;;;5050068;28;20485;-88
2021/11/15 09:34:40;;;;;;;30.38;20.63;;;11.20;99.90;;;;;;5050216;28;20043;-87
2021/11/15 09:37:11;;;;;;;36.38;22.15;;;11.30;99.90;;;;;;5050248;28;20021;-88
2021/11/15 09:39:40;;;;;;;35.80;21.95;;;11.30;99.90;;;;;;5050384;28;20504;-88
2021/11/15 09:42:06;;;;;;;38.65;23.02;;;11.20;99.90;;;;;;5050403;28;20060;-87
2021/11/15 09:44:31;;;;;;;37.72;23.50;;;11.30;99.90;;;;;;5050410;28;20164;-87
2021/11/15 09:46:59;;;;;;;36.53;21.90;;;11.20;99.90;;;;;;5050049;28;20183;-87
2021/11/15 09:49:25;;;;;;;41.22;23.13;;;11.20;99.90;;;;;;5050349;28;20032;-87
2021/11/15 09:51:51;;;;;;;36.20;21.65;;;11.30;99.90;;;;;;5050219;28;20017;-88
2021/11/15 09:54:18;;;;;;;34.63;22.15;;;11.30;99.90;;;;;;5050165;28;20040;-88
2021/11/15 09:56:45;;;;;;;36.30;22.95;;;11.30;99.90;;;;;;5052180;28;20031;-87
2021/11/15 09:59:11;;;;;;;42.13;23.40;;;11.20;99.90;;;;;;5053904;28;20029;-88
2021/11/15 10:01:43;;;;;;;43.47;24.83;;;11.30;99.90;;;;;;5053520;28;20100;-88
2021/11/15 10:04:12;;;;;;;39.45;23.90;;;11.30;99.90;;;;;;5054199;28;20025;-89
2021/11/15 10:06:38;;;;;;;39.22;23.23;;;11.20;99.90;;;;;;5053659;28;20029;-89
2021/11/15 10:09:04;;;;;;;39.03;23.63;;;11.20;99.90;;;;;;5053933;28;20025;-89
2021/11/15 10:11:48;;;;;;;40.33;24.38;;;11.20;99.90;;;;;;5053733;28;20029;-87
2021/11/15 10:14:15;;;;;;;37.72;21.88;;;11.30;99.90;;;;;;5054092;28;20025;-88
2021/11/15 10:16:49;;;;;;;43.03;25.05;;;11.30;99.90;;;;;;5053275;28;20428;-87
2021/11/15 10:19:15;;;;;;;39.28;24.02;;;11.30;99.90;;;;;;5053747;28;20063;-89
2021/11/15 10:21:54;;;;;;;39.55;24.00;;;11.30;99.90;;;;;;5035462;28;20033;-89
2021/11/15 10:24:20;;;;;;;43.70;23.50;;;11.40;99.90;;;;;;5054018;28;20021;-87
2021/11/15 10:26:55;;;;;;;35.75;20.75;;;11.30;99.90;;;;;;5052239;28;20506;-87
2021/11/15 10:29:33;;;;;;;40.13;22.77;;;11.20;99.90;;;;;;5053591;28;20017;-88
2021/11/15 10:32:10;;;;;;;34.53;21.83;;;11.20;99.90;;;;;;5052008;28;20449;-87
2021/11/15 10:34:36;;;;;;;37.75;21.65;;;11.20;99.90;;;;;;5057676;28;20080;-90
2021/11/15 10:37:27;;;;;;;36.67;21.52;;;11.30;99.90;;;;;;5052338;28;20029;-87
2021/11/15 10:40:00;;;;;;;30.58;18.27;;;11.30;99.90;;;;;;5035610;28;20025;-88
2021/11/15 10:42:28;;;;;;;32.95;19.70;;;11.30;99.90;;;;;;5053493;28;20017;-87
2021/11/15 10:45:15;;;;;;;37.83;21.20;;;11.40;99.90;;;;;;5053287;28;20147;-89
2021/11/15 10:47:45;;;;;;;39.38;22.45;;;11.50;99.90;;;;;;5053068;28;20494;-88
2021/11/15 10:50:22;;;;;;;37.03;21.10;;;11.50;99.90;;;;;;5053192;28;20031;-88
2021/11/15 10:52:55;;;;;;;37.22;21.30;;;11.60;99.90;;;;;;5035662;28;20067;-91
2021/11/15 10:55:21;;;;;;;36.08;21.48;;;11.60;99.90;;;;;;5053291;28;20021;-92
2021/11/15 10:57:48;;;;;;;37.78;22.15;;;11.70;99.90;;;;;;5053692;28;20039;-90
2021/11/15 11:00:19;;;;;;;37.22;21.63;;;11.90;99.90;;;;;;5053304;28;20013;-89
2021/11/15 11:02:53;;;;;;;40.90;21.67;;;12.10;99.90;;;;;;5053177;28;20581;-89
2021/11/15 11:05:23;;;;;;;36.08;21.00;;;12.20;99.90;;;;;;5053609;28;20025;-90
2021/11/15 11:08:05;;;;;;;35.75;20.88;;;12.20;99.90;;;;;;5053607;28;20103;-88
2021/11/15 11:10:32;;;;;;;38.72;22.00;;;12.30;99.90;;;;;;5052983;28;20028;-90
2021/11/15 11:13:04;;;;;;;34.22;18.55;;;12.40;99.90;;;;;;5052716;28;20492;-89
2021/11/15 11:15:41;;;;;;;27.23;17.77;;;12.50;99.90;;;;;;5047115;28;20028;-88
2021/11/15 11:18:32;;;;;;;22.20;15.57;;;12.50;99.90;;;;;;5054777;28;20032;-88
2021/11/15 11:21:26;;;;;;;20.83;14.35;;;12.50;99.90;;;;;;5071132;28;20024;-88
2021/11/15 11:26:38;;;;;;;15.70;11.43;;;12.30;99.90;;;;;;5072630;28;20024;-88
2021/11/15 11:29:19;;;;;;;19.10;12.07;;;12.30;99.90;;;;;;5080712;28;20092;-88
2021/11/15 11:31:47;;;;;;;17.20;11.00;;;12.50;99.90;;;;;;5074023;28;20050;-88
2021/11/15 11:34:13;;;;;;;15.73;11.13;;;12.40;99.90;;;;;;5072973;28;20029;-88
2021/11/15 11:36:40;;;;;;;17.27;12.15;;;12.20;99.90;;;;;;5072849;28;20025;-88
2021/11/15 11:39:10;;;;;;;18.45;12.45;;;12.20;99.90;;;;;;5072309;28;20042;-88
2021/11/15 11:41:41;;;;;;;18.20;12.63;;;12.20;99.90;;;;;;5056851;28;20020;-88
2021/11/15 11:44:08;;;;;;;16.95;11.30;;;12.40;99.90;;;;;;5067722;28;20029;-89
2021/11/15 11:46:36;;;;;;;16.75;11.05;;;12.50;99.90;;;;;;5054608;28;20021;-94
2021/11/15 11:49:10;;;;;;;16.27;11.15;;;12.50;99.90;;;;;;5036996;28;20028;-90
2021/11/15 11:51:37;;;;;;;17.45;10.88;;;12.50;99.90;;;;;;5037245;28;20025;-89
2021/11/15 11:54:07;;;;;;;16.77;11.25;;;12.70;99.90;;;;;;5055183;28;20020;-89
2021/11/15 11:56:34;;;;;;;17.10;12.07;;;12.90;99.90;;;;;;5038577;28;20424;-90
2021/11/15 11:59:13;;;;;;;18.98;12.43;;;13.00;99.90;;;;;;5038711;28;20381;-88
2021/11/15 12:01:41;;;;;;;21.23;12.48;;;13.20;99.90;;;;;;5057083;28;20036;-89
2021/11/15 12:04:14;;;;;;;15.55;10.63;;;13.20;99.90;;;;;;5054472;28;20028;-89
2021/11/15 12:06:40;;;;;;;14.68;10.07;;;12.90;99.90;;;;;;5037966;28;20029;-89
2021/11/15 12:09:07;;;;;;;16.02;10.98;;;12.90;99.90;;;;;;5023757;28;20051;-93
2021/11/15 12:11:37;;;;;;;16.13;10.68;;;13.00;99.90;;;;;;5057544;28;20029;-89
2021/11/15 12:14:05;;;;;;;17.33;11.65;;;13.00;99.90;;;;;;5055934;28;20029;-88
2021/11/15 12:16:53;;;;;;;16.48;11.00;;;12.90;99.90;;;;;;5057919;28;20021;-88
2021/11/15 12:19:27;;;;;;;16.33;10.93;;;12.70;99.90;;;;;;5038088;28;20505;-93
2021/11/15 12:22:15;;;;;;;24.50;11.77;;;12.60;99.90;;;;;;5037561;28;20025;-91
2021/11/15 12:25:00;;;;;;;15.57;10.50;;;12.60;99.90;;;;;;5045792;28;20048;-88
2021/11/15 12:27:52;;;;;;;16.20;10.48;;;12.80;99.90;;;;;;5040446;28;20037;-91
2021/11/15 12:30:20;;;;;;;17.85;11.48;;;13.20;99.90;;;;;;5054497;28;20047;-88
2021/11/15 12:33:20;;;;;;;16.50;10.73;;;13.20;99.90;;;;;;5054807;28;20517;-89
2021/11/15 12:36:00;;;;;;;18.10;11.27;;;13.30;99.90;;;;;;5032223;28;20025;-89
2021/11/15 12:38:49;;;;;;;17.92;12.30;;;13.40;99.90;;;;;;5036161;28;20383;-89
2021/11/15 12:41:18;;;;;;;21.10;12.73;;;13.50;99.90;;;;;;5032053;28;20029;-88